sensor_id;sensor_type;location;lat;lon;timestamp;temperature;humidity
20827;DHT22;10574;52.508;13.236;2023-04-10T00:01:45;5.80;99.90
20827;DHT22;10574;52.508;13.236;2023-04-10T00:04:13;5.70;99.90
20827;DHT22;10574;52.508;13.236;2023-04-10T00:06:41;5.70;99.90
20827;DHT22;10574;52.508;13.236;2023-04-10T00:09:09;5.70;99.90
20827;DHT22;10574;52.508;13.236;2023-04-10T00:11:37;5.60;99.90
20827;DHT22;10574;52.508;13.236;2023-04-10T00:14:04;5.60;99.90
20827;DHT22;10574;52.508;13.236;2023-04-10T00:16:32;5.60;99.90
20827;DHT22;10574;52.508;13.236;2023-04-10T00:18:59;5.60;99.90
20827;DHT22;10574;52.508;13.236;2023-04-10T00:21:27;5.50;99.90
20827;DHT22;10574;52.508;13.236;2023-04-10T00:23:55;5.50;99.90
20827;DHT22;10574;52.508;13.236;2023-04-10T00:26:22;5.50;99.90
20827;DHT22;10574;52.508;13.236;2023-04-10T00:28:51;5.40;99.90
20827;DHT22;10574;52.508;13.236;2023-04-10T00:31:19;5.40;99.90
20827;DHT22;10574;52.508;13.236;2023-04-10T00:33:46;5.40;99.90
20827;DHT22;10574;52.508;13.236;2023-04-10T00:36:14;5.30;99.90
20827;DHT22;10574;52.508;13.236;2023-04-10T00:38:42;5.30;99.90
20827;DHT22;10574;52.508;13.236;2023-04-10T00:41:10;5.20;99.90
20827;DHT22;10574;52.508;13.236;2023-04-10T00:43:37;5.10;99.90
20827;DHT22;10574;52.508;13.236;2023-04-10T00:46:05;5.10;99.90
20827;DHT22;10574;52.508;13.236;2023-04-10T00:48:33;5.10;99.90
20827;DHT22;10574;52.508;13.236;2023-04-10T00:51:02;5.10;99.90
20827;DHT22;10574;52.508;13.236;2023-04-10T00:53:30;5.00;99.90
20827;DHT22;10574;52.508;13.236;2023-04-10T00:56:00;5.10;99.90
20827;DHT22;10574;52.508;13.236;2023-04-10T00:58:28;5.00;99.90
20827;DHT22;10574;52.508;13.236;2023-04-10T01:00:55;4.90;99.90
20827;DHT22;10574;52.508;13.236;2023-04-10T01:03:23;4.90;99.90
20827;DHT22;10574;52.508;13.236;2023-04-10T01:09:00;4.90;99.90
20827;DHT22;10574;52.508;13.236;2023-04-10T01:11:52;4.90;99.90
20827;DHT22;10574;52.508;13.236;2023-04-10T01:17:12;4.90;99.90
20827;DHT22;10574;52.508;13.236;2023-04-10T01:19:56;4.90;99.90
20827;DHT22;10574;52.508;13.236;2023-04-10T01:22:20;4.90;99.90
20827;DHT22;10574;52.508;13.236;2023-04-10T01:28:04;4.80;99.90
20827;DHT22;10574;52.508;13.236;2023-04-10T01:30:28;4.80;99.90
20827;DHT22;10574;52.508;13.236;2023-04-10T01:32:59;4.70;99.90
20827;DHT22;10574;52.508;13.236;2023-04-10T01:35:28;4.50;99.90
20827;DHT22;10574;52.508;13.236;2023-04-10T01:37:58;4.50;99.90
20827;DHT22;10574;52.508;13.236;2023-04-10T01:40:26;4.50;99.90
20827;DHT22;10574;52.508;13.236;2023-04-10T01:42:56;4.50;99.90
20827;DHT22;10574;52.508;13.236;2023-04-10T01:45:27;4.40;99.90
20827;DHT22;10574;52.508;13.236;2023-04-10T01:47:55;4.40;99.90
20827;DHT22;10574;52.508;13.236;2023-04-10T01:50:23;4.40;99.90
20827;DHT22;10574;52.508;13.236;2023-04-10T01:52:53;4.40;99.90
20827;DHT22;10574;52.508;13.236;2023-04-10T01:55:23;4.30;99.90
20827;DHT22;10574;52.508;13.236;2023-04-10T01:57:52;4.30;99.90
20827;DHT22;10574;52.508;13.236;2023-04-10T02:00:21;4.30;99.90
20827;DHT22;10574;52.508;13.236;2023-04-10T02:02:48;4.30;99.90
20827;DHT22;10574;52.508;13.236;2023-04-10T02:05:17;4.30;99.90
20827;DHT22;10574;52.508;13.236;2023-04-10T02:08:04;4.30;99.90
20827;DHT22;10574;52.508;13.236;2023-04-10T02:10:47;4.30;99.90
20827;DHT22;10574;52.508;13.236;2023-04-10T02:13:14;4.30;99.90
20827;DHT22;10574;52.508;13.236;2023-04-10T02:15:45;4.30;99.90
20827;DHT22;10574;52.508;13.236;2023-04-10T02:18:14;4.20;99.90
20827;DHT22;10574;52.508;13.236;2023-04-10T02:20:43;4.20;99.90
20827;DHT22;10574;52.508;13.236;2023-04-10T02:23:11;4.10;99.90
20827;DHT22;10574;52.508;13.236;2023-04-10T02:25:39;4.10;99.90
20827;DHT22;10574;52.508;13.236;2023-04-10T02:28:07;4.00;99.90
20827;DHT22;10574;52.508;13.236;2023-04-10T02:30:35;4.00;99.90
20827;DHT22;10574;52.508;13.236;2023-04-10T02:33:02;4.00;99.90
20827;DHT22;10574;52.508;13.236;2023-04-10T02:35:30;4.00;99.90
20827;DHT22;10574;52.508;13.236;2023-04-10T02:37:58;4.00;99.90
20827;DHT22;10574;52.508;13.236;2023-04-10T02:40:26;3.90;99.90
20827;DHT22;10574;52.508;13.236;2023-04-10T02:42:53;3.80;99.90
20827;DHT22;10574;52.508;13.236;2023-04-10T02:45:21;3.80;99.90
20827;DHT22;10574;52.508;13.236;2023-04-10T02:47:49;3.80;99.90
20827;DHT22;10574;52.508;13.236;2023-04-10T02:50:17;3.80;99.90
20827;DHT22;10574;52.508;13.236;2023-04-10T02:52:44;3.70;99.90
20827;DHT22;10574;52.508;13.236;2023-04-10T02:55:12;3.70;99.90
20827;DHT22;10574;52.508;13.236;2023-04-10T02:57:40;3.70;99.90
20827;DHT22;10574;52.508;13.236;2023-04-10T03:00:09;3.70;99.90
20827;DHT22;10574;52.508;13.236;2023-04-10T03:02:36;3.80;99.90
20827;DHT22;10574;52.508;13.236;2023-04-10T03:05:04;3.80;99.90
20827;DHT22;10574;52.508;13.236;2023-04-10T03:07:34;3.90;99.90
20827;DHT22;10574;52.508;13.236;2023-04-10T03:10:02;3.90;99.90
20827;DHT22;10574;52.508;13.236;2023-04-10T03:12:29;4.00;99.90
20827;DHT22;10574;52.508;13.236;2023-04-10T03:14:57;4.00;99.90
20827;DHT22;10574;52.508;13.236;2023-04-10T03:17:24;4.00;99.90
20827;DHT22;10574;52.508;13.236;2023-04-10T03:19:52;4.00;99.90
20827;DHT22;10574;52.508;13.236;2023-04-10T03:22:20;4.00;99.90
20827;DHT22;10574;52.508;13.236;2023-04-10T03:24:47;4.00;99.90
20827;DHT22;10574;52.508;13.236;2023-04-10T03:27:16;4.00;99.90
20827;DHT22;10574;52.508;13.236;2023-04-10T03:29:43;4.00;99.90
20827;DHT22;10574;52.508;13.236;2023-04-10T03:32:11;4.00;99.90
20827;DHT22;10574;52.508;13.236;2023-04-10T03:34:38;4.00;99.90
20827;DHT22;10574;52.508;13.236;2023-04-10T03:37:06;4.00;99.90
20827;DHT22;10574;52.508;13.236;2023-04-10T03:39:33;4.00;99.90
20827;DHT22;10574;52.508;13.236;2023-04-10T03:42:02;4.00;99.90
20827;DHT22;10574;52.508;13.236;2023-04-10T03:44:30;3.90;99.90
20827;DHT22;10574;52.508;13.236;2023-04-10T03:46:58;4.00;99.90
20827;DHT22;10574;52.508;13.236;2023-04-10T03:49:25;3.90;99.90
20827;DHT22;10574;52.508;13.236;2023-04-10T03:51:53;3.90;99.90
20827;DHT22;10574;52.508;13.236;2023-04-10T03:54:20;3.90;99.90
20827;DHT22;10574;52.508;13.236;2023-04-10T03:56:48;3.90;99.90
20827;DHT22;10574;52.508;13.236;2023-04-10T03:59:16;3.80;99.90
20827;DHT22;10574;52.508;13.236;2023-04-10T04:01:43;3.80;99.90
20827;DHT22;10574;52.508;13.236;2023-04-10T04:04:11;3.70;99.90
20827;DHT22;10574;52.508;13.236;2023-04-10T04:06:39;3.70;99.90
20827;DHT22;10574;52.508;13.236;2023-04-10T04:09:06;3.70;99.90
20827;DHT22;10574;52.508;13.236;2023-04-10T04:11:34;3.60;99.90
20827;DHT22;10574;52.508;13.236;2023-04-10T04:14:01;3.50;99.90
20827;DHT22;10574;52.508;13.236;2023-04-10T04:16:29;3.50;99.90
20827;DHT22;10574;52.508;13.236;2023-04-10T04:18:57;3.50;99.90
20827;DHT22;10574;52.508;13.236;2023-04-10T04:21:24;3.50;99.90
20827;DHT22;10574;52.508;13.236;2023-04-10T04:23:52;3.50;99.90
20827;DHT22;10574;52.508;13.236;2023-04-10T04:26:20;3.50;99.90
20827;DHT22;10574;52.508;13.236;2023-04-10T04:28:50;3.60;99.90
20827;DHT22;10574;52.508;13.236;2023-04-10T04:31:18;3.60;99.90
20827;DHT22;10574;52.508;13.236;2023-04-10T04:33:45;3.60;99.90
20827;DHT22;10574;52.508;13.236;2023-04-10T04:36:13;3.70;99.90
20827;DHT22;10574;52.508;13.236;2023-04-10T04:38:41;3.70;99.90
20827;DHT22;10574;52.508;13.236;2023-04-10T04:41:08;3.80;99.90
20827;DHT22;10574;52.508;13.236;2023-04-10T04:43:36;3.90;99.90
20827;DHT22;10574;52.508;13.236;2023-04-10T04:46:04;3.90;99.90
20827;DHT22;10574;52.508;13.236;2023-04-10T04:48:31;4.00;99.90
20827;DHT22;10574;52.508;13.236;2023-04-10T04:50:59;4.00;99.90
20827;DHT22;10574;52.508;13.236;2023-04-10T04:53:26;4.10;99.90
20827;DHT22;10574;52.508;13.236;2023-04-10T04:55:54;4.10;99.90
20827;DHT22;10574;52.508;13.236;2023-04-10T04:58:22;4.20;99.90
20827;DHT22;10574;52.508;13.236;2023-04-10T05:00:53;4.40;99.90
20827;DHT22;10574;52.508;13.236;2023-04-10T05:03:20;4.60;99.90
20827;DHT22;10574;52.508;13.236;2023-04-10T05:05:48;4.90;99.90
20827;DHT22;10574;52.508;13.236;2023-04-10T05:08:15;5.20;99.90
20827;DHT22;10574;52.508;13.236;2023-04-10T05:10:43;5.80;99.90
20827;DHT22;10574;52.508;13.236;2023-04-10T05:13:11;6.60;99.90
20827;DHT22;10574;52.508;13.236;2023-04-10T05:15:39;7.50;99.90
20827;DHT22;10574;52.508;13.236;2023-04-10T05:18:06;8.30;99.90
20827;DHT22;10574;52.508;13.236;2023-04-10T05:20:34;9.40;99.90
20827;DHT22;10574;52.508;13.236;2023-04-10T05:23:02;10.30;99.90
20827;DHT22;10574;52.508;13.236;2023-04-10T05:25:30;11.20;99.90
20827;DHT22;10574;52.508;13.236;2023-04-10T05:27:57;12.00;99.90
20827;DHT22;10574;52.508;13.236;2023-04-10T05:30:25;12.70;99.90
20827;DHT22;10574;52.508;13.236;2023-04-10T05:32:52;12.70;99.90
20827;DHT22;10574;52.508;13.236;2023-04-10T05:35:20;12.20;99.90
20827;DHT22;10574;52.508;13.236;2023-04-10T05:37:48;11.50;99.90
20827;DHT22;10574;52.508;13.236;2023-04-10T05:40:15;10.80;99.90
20827;DHT22;10574;52.508;13.236;2023-04-10T05:42:43;10.60;99.90
20827;DHT22;10574;52.508;13.236;2023-04-10T05:45:11;10.50;99.90
20827;DHT22;10574;52.508;13.236;2023-04-10T05:47:40;10.50;99.90
20827;DHT22;10574;52.508;13.236;2023-04-10T05:50:08;10.90;99.90
20827;DHT22;10574;52.508;13.236;2023-04-10T05:52:36;11.50;99.90
20827;DHT22;10574;52.508;13.236;2023-04-10T05:55:04;12.30;99.90
20827;DHT22;10574;52.508;13.236;2023-04-10T05:57:31;13.30;99.90
20827;DHT22;10574;52.508;13.236;2023-04-10T05:59:59;14.20;99.90
20827;DHT22;10574;52.508;13.236;2023-04-10T06:02:27;15.10;99.90
20827;DHT22;10574;52.508;13.236;2023-04-10T06:04:54;14.60;99.90
20827;DHT22;10574;52.508;13.236;2023-04-10T06:07:22;13.80;99.90
20827;DHT22;10574;52.508;13.236;2023-04-10T06:09:49;12.90;99.90
20827;DHT22;10574;52.508;13.236;2023-04-10T06:12:17;12.40;99.90
20827;DHT22;10574;52.508;13.236;2023-04-10T06:14:46;12.20;99.90
20827;DHT22;10574;52.508;13.236;2023-04-10T06:17:13;12.30;99.90
20827;DHT22;10574;52.508;13.236;2023-04-10T06:19:41;12.20;99.90
20827;DHT22;10574;52.508;13.236;2023-04-10T06:22:09;11.80;99.90
20827;DHT22;10574;52.508;13.236;2023-04-10T06:24:36;11.50;99.90
20827;DHT22;10574;52.508;13.236;2023-04-10T06:27:04;10.80;99.90
20827;DHT22;10574;52.508;13.236;2023-04-10T06:29:31;10.50;99.90
20827;DHT22;10574;52.508;13.236;2023-04-10T06:31:59;10.10;99.90
20827;DHT22;10574;52.508;13.236;2023-04-10T06:34:27;9.70;99.90
20827;DHT22;10574;52.508;13.236;2023-04-10T06:36:54;9.40;99.90
20827;DHT22;10574;52.508;13.236;2023-04-10T06:39:22;9.10;99.90
20827;DHT22;10574;52.508;13.236;2023-04-10T06:41:50;9.10;99.90
20827;DHT22;10574;52.508;13.236;2023-04-10T06:44:18;9.30;99.90
20827;DHT22;10574;52.508;13.236;2023-04-10T06:46:45;9.40;99.90
20827;DHT22;10574;52.508;13.236;2023-04-10T06:49:13;9.60;99.90
20827;DHT22;10574;52.508;13.236;2023-04-10T06:51:40;9.70;99.90
20827;DHT22;10574;52.508;13.236;2023-04-10T06:54:08;9.90;99.90
20827;DHT22;10574;52.508;13.236;2023-04-10T06:56:36;10.00;99.90
20827;DHT22;10574;52.508;13.236;2023-04-10T06:59:03;10.00;99.90
20827;DHT22;10574;52.508;13.236;2023-04-10T07:01:31;10.10;99.90
20827;DHT22;10574;52.508;13.236;2023-04-10T07:03:59;10.30;99.90
20827;DHT22;10574;52.508;13.236;2023-04-10T07:06:27;10.70;99.90
20827;DHT22;10574;52.508;13.236;2023-04-10T07:08:54;11.30;99.90
20827;DHT22;10574;52.508;13.236;2023-04-10T07:11:22;11.70;99.90
20827;DHT22;10574;52.508;13.236;2023-04-10T07:13:49;12.20;99.90
20827;DHT22;10574;52.508;13.236;2023-04-10T07:16:19;12.50;99.90
20827;DHT22;10574;52.508;13.236;2023-04-10T07:18:46;12.70;99.90
20827;DHT22;10574;52.508;13.236;2023-04-10T07:21:14;12.90;99.90
20827;DHT22;10574;52.508;13.236;2023-04-10T07:23:41;13.10;99.90
20827;DHT22;10574;52.508;13.236;2023-04-10T07:26:09;12.90;99.90
20827;DHT22;10574;52.508;13.236;2023-04-10T07:28:37;12.30;99.90
20827;DHT22;10574;52.508;13.236;2023-04-10T07:31:04;12.00;99.90
20827;DHT22;10574;52.508;13.236;2023-04-10T07:33:34;11.70;99.90
20827;DHT22;10574;52.508;13.236;2023-04-10T07:36:01;12.00;99.90
20827;DHT22;10574;52.508;13.236;2023-04-10T07:38:31;11.60;99.90
20827;DHT22;10574;52.508;13.236;2023-04-10T07:40:59;11.60;99.90
20827;DHT22;10574;52.508;13.236;2023-04-10T07:43:27;11.50;99.90
20827;DHT22;10574;52.508;13.236;2023-04-10T07:45:55;11.60;99.90
20827;DHT22;10574;52.508;13.236;2023-04-10T07:48:22;12.00;99.90
20827;DHT22;10574;52.508;13.236;2023-04-10T07:50:50;11.80;99.90
20827;DHT22;10574;52.508;13.236;2023-04-10T07:53:18;12.20;99.90
20827;DHT22;10574;52.508;13.236;2023-04-10T07:55:45;12.60;99.90
20827;DHT22;10574;52.508;13.236;2023-04-10T07:58:14;13.00;99.90
20827;DHT22;10574;52.508;13.236;2023-04-10T08:00:42;12.80;99.90
20827;DHT22;10574;52.508;13.236;2023-04-10T08:03:10;12.90;99.90
20827;DHT22;10574;52.508;13.236;2023-04-10T08:05:38;13.30;99.90
20827;DHT22;10574;52.508;13.236;2023-04-10T08:08:06;13.50;99.90
20827;DHT22;10574;52.508;13.236;2023-04-10T08:10:36;13.70;99.90
20827;DHT22;10574;52.508;13.236;2023-04-10T08:13:04;14.10;99.90
20827;DHT22;10574;52.508;13.236;2023-04-10T08:15:32;14.70;99.90
20827;DHT22;10574;52.508;13.236;2023-04-10T08:18:00;14.90;99.90
20827;DHT22;10574;52.508;13.236;2023-04-10T08:20:27;15.00;99.90
20827;DHT22;10574;52.508;13.236;2023-04-10T08:22:55;15.40;99.90
20827;DHT22;10574;52.508;13.236;2023-04-10T08:25:23;15.70;99.90
20827;DHT22;10574;52.508;13.236;2023-04-10T08:27:50;15.10;99.90
20827;DHT22;10574;52.508;13.236;2023-04-10T08:30:18;14.70;99.90
20827;DHT22;10574;52.508;13.236;2023-04-10T08:32:46;15.10;99.90
20827;DHT22;10574;52.508;13.236;2023-04-10T08:35:14;15.40;99.90
20827;DHT22;10574;52.508;13.236;2023-04-10T08:37:41;15.70;99.90
20827;DHT22;10574;52.508;13.236;2023-04-10T08:40:09;15.10;99.90
20827;DHT22;10574;52.508;13.236;2023-04-10T08:42:37;15.10;99.90
20827;DHT22;10574;52.508;13.236;2023-04-10T08:45:06;15.20;99.90
20827;DHT22;10574;52.508;13.236;2023-04-10T08:47:35;15.00;99.90
20827;DHT22;10574;52.508;13.236;2023-04-10T08:50:09;15.00;99.90
20827;DHT22;10574;52.508;13.236;2023-04-10T08:52:37;15.00;99.90
20827;DHT22;10574;52.508;13.236;2023-04-10T08:55:07;15.10;99.90
20827;DHT22;10574;52.508;13.236;2023-04-10T08:57:37;15.40;99.90
20827;DHT22;10574;52.508;13.236;2023-04-10T09:00:05;15.50;99.90
20827;DHT22;10574;52.508;13.236;2023-04-10T09:02:37;15.70;99.90
20827;DHT22;10574;52.508;13.236;2023-04-10T09:05:04;15.70;99.90
20827;DHT22;10574;52.508;13.236;2023-04-10T09:07:33;15.90;99.90
20827;DHT22;10574;52.508;13.236;2023-04-10T09:10:00;16.00;99.90
20827;DHT22;10574;52.508;13.236;2023-04-10T09:12:28;16.20;99.90
20827;DHT22;10574;52.508;13.236;2023-04-10T09:14:56;16.30;99.90
20827;DHT22;10574;52.508;13.236;2023-04-10T09:17:24;16.40;99.90
20827;DHT22;10574;52.508;13.236;2023-04-10T09:19:53;16.20;99.90
20827;DHT22;10574;52.508;13.236;2023-04-10T09:22:32;16.20;99.90
20827;DHT22;10574;52.508;13.236;2023-04-10T09:25:02;16.20;99.90
20827;DHT22;10574;52.508;13.236;2023-04-10T09:27:34;15.40;99.90
20827;DHT22;10574;52.508;13.236;2023-04-10T09:30:05;15.50;99.90
20827;DHT22;10574;52.508;13.236;2023-04-10T09:32:45;15.20;99.90
20827;DHT22;10574;52.508;13.236;2023-04-10T09:35:14;15.10;99.90
20827;DHT22;10574;52.508;13.236;2023-04-10T09:37:44;15.30;99.90
20827;DHT22;10574;52.508;13.236;2023-04-10T09:40:24;15.40;99.90
20827;DHT22;10574;52.508;13.236;2023-04-10T09:42:52;15.40;99.90
20827;DHT22;10574;52.508;13.236;2023-04-10T09:45:21;15.40;99.90
20827;DHT22;10574;52.508;13.236;2023-04-10T09:48:05;15.60;99.90
20827;DHT22;10574;52.508;13.236;2023-04-10T09:50:35;15.60;99.90
20827;DHT22;10574;52.508;13.236;2023-04-10T09:53:03;16.00;99.90
20827;DHT22;10574;52.508;13.236;2023-04-10T09:55:32;16.40;99.90
20827;DHT22;10574;52.508;13.236;2023-04-10T09:58:02;16.60;99.90
20827;DHT22;10574;52.508;13.236;2023-04-10T10:00:37;16.10;99.90
20827;DHT22;10574;52.508;13.236;2023-04-10T10:03:03;16.60;99.90
20827;DHT22;10574;52.508;13.236;2023-04-10T10:05:33;16.70;99.90
20827;DHT22;10574;52.508;13.236;2023-04-10T10:08:01;16.90;99.90
20827;DHT22;10574;52.508;13.236;2023-04-10T10:10:30;16.80;99.90
20827;DHT22;10574;52.508;13.236;2023-04-10T10:13:02;16.70;99.90
20827;DHT22;10574;52.508;13.236;2023-04-10T10:15:38;16.60;99.90
20827;DHT22;10574;52.508;13.236;2023-04-10T10:20:56;16.00;99.90
20827;DHT22;10574;52.508;13.236;2023-04-10T10:23:24;15.90;99.90
20827;DHT22;10574;52.508;13.236;2023-04-10T10:25:53;15.80;99.90
20827;DHT22;10574;52.508;13.236;2023-04-10T10:28:22;16.20;99.90
20827;DHT22;10574;52.508;13.236;2023-04-10T10:30:51;16.40;99.90
20827;DHT22;10574;52.508;13.236;2023-04-10T10:33:19;16.40;99.90
20827;DHT22;10574;52.508;13.236;2023-04-10T10:35:46;16.60;99.90
20827;DHT22;10574;52.508;13.236;2023-04-10T10:38:16;16.60;99.90
20827;DHT22;10574;52.508;13.236;2023-04-10T10:43:54;16.60;99.90
20827;DHT22;10574;52.508;13.236;2023-04-10T10:46:34;16.50;99.90
20827;DHT22;10574;52.508;13.236;2023-04-10T10:48:59;16.60;99.90
20827;DHT22;10574;52.508;13.236;2023-04-10T10:51:47;16.90;99.90
20827;DHT22;10574;52.508;13.236;2023-04-10T10:54:34;17.20;99.90
20827;DHT22;10574;52.508;13.236;2023-04-10T10:57:02;17.00;99.90
20827;DHT22;10574;52.508;13.236;2023-04-10T11:02:18;16.30;99.90
20827;DHT22;10574;52.508;13.236;2023-04-10T11:04:47;16.60;99.90
20827;DHT22;10574;52.508;13.236;2023-04-10T11:07:15;16.70;99.90
20827;DHT22;10574;52.508;13.236;2023-04-10T11:09:52;16.70;99.90
20827;DHT22;10574;52.508;13.236;2023-04-10T11:12:22;16.60;99.90
20827;DHT22;10574;52.508;13.236;2023-04-10T11:15:01;16.50;99.90
20827;DHT22;10574;52.508;13.236;2023-04-10T11:17:51;16.60;99.90
20827;DHT22;10574;52.508;13.236;2023-04-10T11:20:22;16.70;99.90
20827;DHT22;10574;52.508;13.236;2023-04-10T11:23:11;17.10;99.90
20827;DHT22;10574;52.508;13.236;2023-04-10T11:25:50;16.80;99.90
20827;DHT22;10574;52.508;13.236;2023-04-10T11:28:37;16.80;99.90
20827;DHT22;10574;52.508;13.236;2023-04-10T11:31:21;17.10;99.90
20827;DHT22;10574;52.508;13.236;2023-04-10T11:36:26;16.20;99.90
20827;DHT22;10574;52.508;13.236;2023-04-10T11:38:58;15.80;99.90
20827;DHT22;10574;52.508;13.236;2023-04-10T11:41:35;15.90;99.90
20827;DHT22;10574;52.508;13.236;2023-04-10T11:44:01;16.20;99.90
20827;DHT22;10574;52.508;13.236;2023-04-10T11:46:30;16.80;99.90
20827;DHT22;10574;52.508;13.236;2023-04-10T11:49:03;16.80;99.90
20827;DHT22;10574;52.508;13.236;2023-04-10T11:51:31;17.10;99.90
20827;DHT22;10574;52.508;13.236;2023-04-10T11:54:14;17.20;99.90
20827;DHT22;10574;52.508;13.236;2023-04-10T11:56:44;17.40;99.90
20827;DHT22;10574;52.508;13.236;2023-04-10T11:59:12;17.40;99.90
20827;DHT22;10574;52.508;13.236;2023-04-10T12:01:41;17.00;99.90
20827;DHT22;10574;52.508;13.236;2023-04-10T12:04:17;17.10;99.90
20827;DHT22;10574;52.508;13.236;2023-04-10T12:06:52;17.40;99.90
20827;DHT22;10574;52.508;13.236;2023-04-10T12:09:21;17.70;99.90
20827;DHT22;10574;52.508;13.236;2023-04-10T12:11:58;17.80;99.90
20827;DHT22;10574;52.508;13.236;2023-04-10T12:14:30;17.10;99.90
20827;DHT22;10574;52.508;13.236;2023-04-10T12:16:59;17.20;99.90
20827;DHT22;10574;52.508;13.236;2023-04-10T12:19:27;16.70;99.90
20827;DHT22;10574;52.508;13.236;2023-04-10T12:21:55;16.60;99.90
20827;DHT22;10574;52.508;13.236;2023-04-10T12:24:46;16.70;99.90
20827;DHT22;10574;52.508;13.236;2023-04-10T12:27:19;16.50;99.90
20827;DHT22;10574;52.508;13.236;2023-04-10T12:29:49;17.00;99.90
20827;DHT22;10574;52.508;13.236;2023-04-10T12:32:17;17.00;99.90
20827;DHT22;10574;52.508;13.236;2023-04-10T12:34:56;17.10;99.90
20827;DHT22;10574;52.508;13.236;2023-04-10T12:37:25;17.20;99.90
20827;DHT22;10574;52.508;13.236;2023-04-10T12:40:09;17.00;99.90
20827;DHT22;10574;52.508;13.236;2023-04-10T12:42:38;17.00;99.90
20827;DHT22;10574;52.508;13.236;2023-04-10T12:45:05;17.20;99.90
20827;DHT22;10574;52.508;13.236;2023-04-10T12:47:48;17.20;99.90
20827;DHT22;10574;52.508;13.236;2023-04-10T12:50:19;17.30;99.90
20827;DHT22;10574;52.508;13.236;2023-04-10T12:53:04;17.20;99.90
20827;DHT22;10574;52.508;13.236;2023-04-10T12:55:36;17.40;99.90
20827;DHT22;10574;52.508;13.236;2023-04-10T12:58:20;17.40;99.90
20827;DHT22;10574;52.508;13.236;2023-04-10T13:00:48;17.30;99.90
20827;DHT22;10574;52.508;13.236;2023-04-10T13:03:24;17.30;99.90
20827;DHT22;10574;52.508;13.236;2023-04-10T13:05:52;17.00;99.90
20827;DHT22;10574;52.508;13.236;2023-04-10T13:08:20;16.60;99.90
20827;DHT22;10574;52.508;13.236;2023-04-10T13:10:48;16.80;99.90
20827;DHT22;10574;52.508;13.236;2023-04-10T13:13:17;16.90;99.90
20827;DHT22;10574;52.508;13.236;2023-04-10T13:15:44;16.70;99.90
20827;DHT22;10574;52.508;13.236;2023-04-10T13:18:12;16.60;99.90
20827;DHT22;10574;52.508;13.236;2023-04-10T13:20:40;16.80;99.90
20827;DHT22;10574;52.508;13.236;2023-04-10T13:23:08;17.10;99.90
20827;DHT22;10574;52.508;13.236;2023-04-10T13:25:37;17.20;99.90
20827;DHT22;10574;52.508;13.236;2023-04-10T13:28:06;17.40;99.90
20827;DHT22;10574;52.508;13.236;2023-04-10T13:30:41;17.60;99.90
20827;DHT22;10574;52.508;13.236;2023-04-10T13:33:09;17.60;99.90
20827;DHT22;10574;52.508;13.236;2023-04-10T13:35:38;17.40;99.90
20827;DHT22;10574;52.508;13.236;2023-04-10T13:38:08;17.40;99.90
20827;DHT22;10574;52.508;13.236;2023-04-10T13:40:37;17.10;99.90
20827;DHT22;10574;52.508;13.236;2023-04-10T13:43:05;17.40;99.90
20827;DHT22;10574;52.508;13.236;2023-04-10T13:45:32;17.80;99.90
20827;DHT22;10574;52.508;13.236;2023-04-10T13:48:00;17.80;99.90
20827;DHT22;10574;52.508;13.236;2023-04-10T13:50:28;17.60;99.90
20827;DHT22;10574;52.508;13.236;2023-04-10T13:52:55;17.50;99.90
20827;DHT22;10574;52.508;13.236;2023-04-10T13:55:23;17.60;99.90
20827;DHT22;10574;52.508;13.236;2023-04-10T13:57:51;17.10;99.90
20827;DHT22;10574;52.508;13.236;2023-04-10T14:00:19;17.10;99.90
20827;DHT22;10574;52.508;13.236;2023-04-10T14:02:47;17.30;99.90
20827;DHT22;10574;52.508;13.236;2023-04-10T14:05:15;17.40;99.90
20827;DHT22;10574;52.508;13.236;2023-04-10T14:07:43;17.20;99.90
20827;DHT22;10574;52.508;13.236;2023-04-10T14:10:10;17.40;99.90
20827;DHT22;10574;52.508;13.236;2023-04-10T14:12:38;17.60;99.90
20827;DHT22;10574;52.508;13.236;2023-04-10T14:15:07;17.40;99.90
20827;DHT22;10574;52.508;13.236;2023-04-10T14:17:34;17.10;99.90
20827;DHT22;10574;52.508;13.236;2023-04-10T14:20:02;17.10;99.90
20827;DHT22;10574;52.508;13.236;2023-04-10T14:22:30;16.90;99.90
20827;DHT22;10574;52.508;13.236;2023-04-10T14:24:58;16.70;99.90
20827;DHT22;10574;52.508;13.236;2023-04-10T14:27:25;16.60;99.90
20827;DHT22;10574;52.508;13.236;2023-04-10T14:29:53;16.60;99.90
20827;DHT22;10574;52.508;13.236;2023-04-10T14:32:21;16.70;99.90
20827;DHT22;10574;52.508;13.236;2023-04-10T14:34:49;16.90;99.90
20827;DHT22;10574;52.508;13.236;2023-04-10T14:37:16;17.00;99.90
20827;DHT22;10574;52.508;13.236;2023-04-10T14:39:44;17.10;99.90
20827;DHT22;10574;52.508;13.236;2023-04-10T14:42:12;17.40;99.90
20827;DHT22;10574;52.508;13.236;2023-04-10T14:44:40;17.50;99.90
20827;DHT22;10574;52.508;13.236;2023-04-10T14:47:08;17.70;99.90
20827;DHT22;10574;52.508;13.236;2023-04-10T14:49:36;17.60;99.90
20827;DHT22;10574;52.508;13.236;2023-04-10T14:52:04;17.40;99.90
20827;DHT22;10574;52.508;13.236;2023-04-10T14:54:31;17.30;99.90
20827;DHT22;10574;52.508;13.236;2023-04-10T14:56:59;17.10;99.90
20827;DHT22;10574;52.508;13.236;2023-04-10T14:59:27;17.00;99.90
20827;DHT22;10574;52.508;13.236;2023-04-10T15:01:55;16.90;99.90
20827;DHT22;10574;52.508;13.236;2023-04-10T15:04:22;16.60;99.90
20827;DHT22;10574;52.508;13.236;2023-04-10T15:06:50;16.40;99.90
20827;DHT22;10574;52.508;13.236;2023-04-10T15:09:18;16.40;99.90
20827;DHT22;10574;52.508;13.236;2023-04-10T15:11:46;16.50;99.90
20827;DHT22;10574;52.508;13.236;2023-04-10T15:14:13;16.50;99.90
20827;DHT22;10574;52.508;13.236;2023-04-10T15:16:41;16.70;99.90
20827;DHT22;10574;52.508;13.236;2023-04-10T15:19:09;16.60;99.90
20827;DHT22;10574;52.508;13.236;2023-04-10T15:21:36;16.60;99.90
20827;DHT22;10574;52.508;13.236;2023-04-10T15:24:05;16.40;99.90
20827;DHT22;10574;52.508;13.236;2023-04-10T15:26:33;16.50;99.90
20827;DHT22;10574;52.508;13.236;2023-04-10T15:29:01;16.40;99.90
20827;DHT22;10574;52.508;13.236;2023-04-10T15:31:28;16.40;99.90
20827;DHT22;10574;52.508;13.236;2023-04-10T15:33:56;16.30;99.90
20827;DHT22;10574;52.508;13.236;2023-04-10T15:36:24;16.30;99.90
20827;DHT22;10574;52.508;13.236;2023-04-10T15:38:53;16.30;99.90
20827;DHT22;10574;52.508;13.236;2023-04-10T15:41:21;16.30;99.90
20827;DHT22;10574;52.508;13.236;2023-04-10T15:43:49;16.30;99.90
20827;DHT22;10574;52.508;13.236;2023-04-10T15:46:16;16.40;99.90
20827;DHT22;10574;52.508;13.236;2023-04-10T15:48:44;16.50;99.90
20827;DHT22;10574;52.508;13.236;2023-04-10T15:51:12;16.70;99.90
20827;DHT22;10574;52.508;13.236;2023-04-10T15:53:40;16.60;99.90
20827;DHT22;10574;52.508;13.236;2023-04-10T15:56:08;16.60;99.90